sensor_id;sensor_type;location;lat;lon;timestamp;pressure;altitude;pressure_sealevel;temperature;humidity
59367;BME280;45163;47.690;11.770;2024-01-25T00:01:54;-21338.41;;;5.55;100.00
59367;BME280;45163;47.690;11.770;2024-01-25T00:04:20;94351.78;;;5.53;100.00
59367;BME280;45163;47.690;11.770;2024-01-25T00:06:46;94349.50;;;5.59;100.00
59367;BME280;45163;47.690;11.770;2024-01-25T00:09:12;94341.00;;;5.57;100.00
59367;BME280;45163;47.690;11.770;2024-01-25T00:11:38;94342.94;;;5.56;100.00
59367;BME280;45163;47.690;11.770;2024-01-25T00:14:04;94349.44;;;5.52;100.00
59367;BME280;45163;47.690;11.770;2024-01-25T00:16:30;94338.63;;;5.48;100.00
59367;BME280;45163;47.690;11.770;2024-01-25T00:18:56;94338.13;;;5.39;100.00
59367;BME280;45163;47.690;11.770;2024-01-25T00:21:22;94327.00;;;5.51;100.00
59367;BME280;45163;47.690;11.770;2024-01-25T00:23:48;94356.03;;;5.50;100.00
59367;BME280;45163;47.690;11.770;2024-01-25T00:26:14;94359.50;;;5.51;100.00
59367;BME280;45163;47.690;11.770;2024-01-25T00:28:49;94338.69;;;5.62;100.00
59367;BME280;45163;47.690;11.770;2024-01-25T00:31:15;94330.47;;;5.44;100.00
59367;BME280;45163;47.690;11.770;2024-01-25T00:33:41;94328.09;;;5.36;100.00
59367;BME280;45163;47.690;11.770;2024-01-25T00:36:07;94327.75;;;5.44;100.00
59367;BME280;45163;47.690;11.770;2024-01-25T00:38:34;94331.56;;;5.36;100.00
59367;BME280;45163;47.690;11.770;2024-01-25T00:41:00;94330.69;;;5.25;100.00
59367;BME280;45163;47.690;11.770;2024-01-25T00:43:26;94342.72;;;5.28;100.00
59367;BME280;45163;47.690;11.770;2024-01-25T00:45:52;94351.56;;;5.24;100.00
59367;BME280;45163;47.690;11.770;2024-01-25T00:48:19;94352.75;;;5.23;100.00
59367;BME280;45163;47.690;11.770;2024-01-25T00:50:45;94362.41;;;5.24;100.00
59367;BME280;45163;47.690;11.770;2024-01-25T00:53:11;94358.81;;;5.13;100.00
59367;BME280;45163;47.690;11.770;2024-01-25T00:55:37;94361.84;;;5.05;100.00
59367;BME280;45163;47.690;11.770;2024-01-25T00:58:04;94365.28;;;5.02;100.00
59367;BME280;45163;47.690;11.770;2024-01-25T01:00:30;94366.88;;;5.03;100.00
59367;BME280;45163;47.690;11.770;2024-01-25T01:02:57;94370.69;;;5.02;100.00
59367;BME280;45163;47.690;11.770;2024-01-25T01:05:25;94371.88;;;5.04;100.00
59367;BME280;45163;47.690;11.770;2024-01-25T01:07:51;94366.09;;;5.06;100.00
59367;BME280;45163;47.690;11.770;2024-01-25T01:10:17;94368.03;;;5.05;100.00
59367;BME280;45163;47.690;11.770;2024-01-25T01:12:43;94372.69;;;5.08;100.00
59367;BME280;45163;47.690;11.770;2024-01-25T01:15:09;94361.03;;;5.00;100.00
59367;BME280;45163;47.690;11.770;2024-01-25T01:17:35;94366.56;;;5.11;100.00
59367;BME280;45163;47.690;11.770;2024-01-25T01:20:01;94378.53;;;5.10;100.00
59367;BME280;45163;47.690;11.770;2024-01-25T01:22:27;94386.16;;;5.01;100.00
59367;BME280;45163;47.690;11.770;2024-01-25T01:24:53;94383.50;;;5.05;100.00
59367;BME280;45163;47.690;11.770;2024-01-25T01:27:19;94381.53;;;5.02;100.00
59367;BME280;45163;47.690;11.770;2024-01-25T01:29:46;94381.88;;;4.96;100.00
59367;BME280;45163;47.690;11.770;2024-01-25T01:32:12;94387.75;;;5.06;100.00
59367;BME280;45163;47.690;11.770;2024-01-25T01:34:38;94372.84;;;5.26;100.00
59367;BME280;45163;47.690;11.770;2024-01-25T01:37:04;94363.91;;;5.18;100.00
59367;BME280;45163;47.690;11.770;2024-01-25T01:39:30;94371.66;;;5.20;100.00
59367;BME280;45163;47.690;11.770;2024-01-25T01:41:56;94379.00;;;5.19;100.00
59367;BME280;45163;47.690;11.770;2024-01-25T01:44:22;94374.75;;;5.22;100.00
59367;BME280;45163;47.690;11.770;2024-01-25T01:46:48;94382.88;;;5.22;100.00
59367;BME280;45163;47.690;11.770;2024-01-25T01:49:14;94365.13;;;5.24;100.00
59367;BME280;45163;47.690;11.770;2024-01-25T01:51:41;94354.25;;;5.21;100.00
59367;BME280;45163;47.690;11.770;2024-01-25T01:54:09;94357.66;;;5.11;100.00
59367;BME280;45163;47.690;11.770;2024-01-25T01:56:36;94361.84;;;5.05;100.00
59367;BME280;45163;47.690;11.770;2024-01-25T01:59:04;94369.53;;;4.99;100.00
59367;BME280;45163;47.690;11.770;2024-01-25T02:01:31;94368.63;;;4.88;100.00
59367;BME280;45163;47.690;11.770;2024-01-25T02:03:57;94379.06;;;4.86;100.00
59367;BME280;45163;47.690;11.770;2024-01-25T02:06:24;94359.19;;;4.71;100.00
59367;BME280;45163;47.690;11.770;2024-01-25T02:08:50;94362.63;;;4.64;100.00
59367;BME280;45163;47.690;11.770;2024-01-25T02:11:17;94357.94;;;4.61;100.00
59367;BME280;45163;47.690;11.770;2024-01-25T02:13:43;94373.44;;;4.64;100.00
59367;BME280;45163;47.690;11.770;2024-01-25T02:16:09;94361.88;;;4.67;100.00
59367;BME280;45163;47.690;11.770;2024-01-25T02:18:36;94358.72;;;4.62;100.00
59367;BME280;45163;47.690;11.770;2024-01-25T02:21:02;94385.69;;;4.55;100.00
59367;BME280;45163;47.690;11.770;2024-01-25T02:23:28;94371.78;;;4.53;100.00
59367;BME280;45163;47.690;11.770;2024-01-25T02:25:54;94368.97;;;4.45;100.00
59367;BME280;45163;47.690;11.770;2024-01-25T02:28:20;94385.09;;;4.38;100.00
59367;BME280;45163;47.690;11.770;2024-01-25T02:30:46;94380.03;;;4.33;100.00
59367;BME280;45163;47.690;11.770;2024-01-25T02:33:12;94389.97;;;4.25;100.00
59367;BME280;45163;47.690;11.770;2024-01-25T02:35:38;94378.38;;;4.25;100.00
59367;BME280;45163;47.690;11.770;2024-01-25T02:38:04;94377.63;;;4.24;100.00
59367;BME280;45163;47.690;11.770;2024-01-25T02:40:30;94378.03;;;4.27;100.00
59367;BME280;45163;47.690;11.770;2024-01-25T02:42:55;94372.25;;;4.28;100.00
59367;BME280;45163;47.690;11.770;2024-01-25T02:45:24;94364.91;;;4.29;100.00
59367;BME280;45163;47.690;11.770;2024-01-25T02:47:50;94376.00;;;4.20;100.00
59367;BME280;45163;47.690;11.770;2024-01-25T02:50:16;94376.75;;;4.17;100.00
59367;BME280;45163;47.690;11.770;2024-01-25T02:52:42;94376.34;;;4.15;100.00
59367;BME280;45163;47.690;11.770;2024-01-25T02:55:08;94362.00;;;4.11;100.00
59367;BME280;45163;47.690;11.770;2024-01-25T02:57:34;94370.16;;;4.14;100.00
59367;BME280;45163;47.690;11.770;2024-01-25T03:00:00;94362.13;;;4.21;100.00
59367;BME280;45163;47.690;11.770;2024-01-25T03:02:26;94364.00;;;4.17;100.00
59367;BME280;45163;47.690;11.770;2024-01-25T03:04:52;94355.06;;;4.10;100.00
59367;BME280;45163;47.690;11.770;2024-01-25T03:07:18;94359.34;;;4.14;100.00
59367;BME280;45163;47.690;11.770;2024-01-25T03:09:44;94356.97;;;4.09;100.00
59367;BME280;45163;47.690;11.770;2024-01-25T03:12:10;94356.59;;;4.11;100.00
59367;BME280;45163;47.690;11.770;2024-01-25T03:14:36;94365.88;;;4.10;100.00
59367;BME280;45163;47.690;11.770;2024-01-25T03:17:02;94350.50;;;4.17;100.00
59367;BME280;45163;47.690;11.770;2024-01-25T03:19:28;94354.78;;;4.18;100.00
59367;BME280;45163;47.690;11.770;2024-01-25T03:21:54;94340.16;;;4.23;100.00
59367;BME280;45163;47.690;11.770;2024-01-25T03:24:21;94351.31;;;4.21;100.00
59367;BME280;45163;47.690;11.770;2024-01-25T03:26:47;94349.09;;;4.27;100.00
59367;BME280;45163;47.690;11.770;2024-01-25T03:29:14;94353.34;;;4.28;100.00
59367;BME280;45163;47.690;11.770;2024-01-25T03:31:40;94352.22;;;4.33;100.00
59367;BME280;45163;47.690;11.770;2024-01-25T03:34:06;94370.28;;;4.25;100.00
59367;BME280;45163;47.690;11.770;2024-01-25T03:36:32;94369.94;;;4.30;100.00
59367;BME280;45163;47.690;11.770;2024-01-25T03:38:58;94370.59;;;4.20;100.00
59367;BME280;45163;47.690;11.770;2024-01-25T03:41:25;94372.53;;;4.19;100.00
59367;BME280;45163;47.690;11.770;2024-01-25T03:43:51;94368.31;;;4.22;100.00
59367;BME280;45163;47.690;11.770;2024-01-25T03:46:17;94370.31;;;4.29;100.00
59367;BME280;45163;47.690;11.770;2024-01-25T03:48:43;94362.94;;;4.25;100.00
59367;BME280;45163;47.690;11.770;2024-01-25T03:51:09;94372.66;;;4.30;100.00
59367;BME280;45163;47.690;11.770;2024-01-25T03:53:35;94371.16;;;4.33;100.00
59367;BME280;45163;47.690;11.770;2024-01-25T03:56:01;94366.81;;;4.24;100.00
59367;BME280;45163;47.690;11.770;2024-01-25T03:58:28;94364.16;;;4.28;100.00
59367;BME280;45163;47.690;11.770;2024-01-25T04:00:54;94362.22;;;4.29;100.00
59367;BME280;45163;47.690;11.770;2024-01-25T04:03:20;94362.91;;;4.22;100.00
59367;BME280;45163;47.690;11.770;2024-01-25T04:05:46;94367.22;;;4.27;100.00
59367;BME280;45163;47.690;11.770;2024-01-25T04:08:12;94363.72;;;4.22;100.00
59367;BME280;45163;47.690;11.770;2024-01-25T04:10:38;94372.22;;;4.24;100.00
59367;BME280;45163;47.690;11.770;2024-01-25T04:13:04;94376.06;;;4.23;100.00
59367;BME280;45163;47.690;11.770;2024-01-25T04:15:32;94382.63;;;4.26;100.00
59367;BME280;45163;47.690;11.770;2024-01-25T04:17:58;94379.50;;;4.20;100.00
59367;BME280;45163;47.690;11.770;2024-01-25T04:20:24;94385.31;;;4.22;100.00
59367;BME280;45163;47.690;11.770;2024-01-25T04:22:50;94374.47;;;4.19;100.00
59367;BME280;45163;47.690;11.770;2024-01-25T04:25:16;94382.06;;;4.10;100.00
59367;BME280;45163;47.690;11.770;2024-01-25T04:27:42;94379.03;;;4.15;100.00
59367;BME280;45163;47.690;11.770;2024-01-25T04:30:08;94372.38;;;4.09;100.00
59367;BME280;45163;47.690;11.770;2024-01-25T04:32:34;94369.84;;;4.19;100.00
59367;BME280;45163;47.690;11.770;2024-01-25T04:35:00;94377.13;;;4.15;100.00
59367;BME280;45163;47.690;11.770;2024-01-25T04:37:26;94373.53;;;4.08;100.00
59367;BME280;45163;47.690;11.770;2024-01-25T04:39:52;94383.25;;;4.12;100.00
59367;BME280;45163;47.690;11.770;2024-01-25T04:42:18;94369.69;;;4.09;100.00
59367;BME280;45163;47.690;11.770;2024-01-25T04:44:44;94369.84;;;4.19;100.00
59367;BME280;45163;47.690;11.770;2024-01-25T04:47:10;94372.53;;;4.19;100.00
59367;BME280;45163;47.690;11.770;2024-01-25T04:49:36;94381.25;;;4.06;100.00
59367;BME280;45163;47.690;11.770;2024-01-25T04:52:02;94382.09;;;3.83;100.00
59367;BME280;45163;47.690;11.770;2024-01-25T04:54:28;94383.25;;;3.82;100.00
59367;BME280;45163;47.690;11.770;2024-01-25T04:56:55;94378.50;;;3.75;100.00
59367;BME280;45163;47.690;11.770;2024-01-25T04:59:21;94385.09;;;3.78;100.00
59367;BME280;45163;47.690;11.770;2024-01-25T05:01:47;94372.28;;;3.71;100.00
59367;BME280;45163;47.690;11.770;2024-01-25T05:04:13;94371.00;;;3.62;100.00
59367;BME280;45163;47.690;11.770;2024-01-25T05:06:38;94380.75;;;3.70;100.00
59367;BME280;45163;47.690;11.770;2024-01-25T05:09:04;94384.31;;;3.51;100.00
59367;BME280;45163;47.690;11.770;2024-01-25T05:11:40;94382.56;;;3.36;100.00
59367;BME280;45163;47.690;11.770;2024-01-25T05:14:07;94377.47;;;3.31;100.00
59367;BME280;45163;47.690;11.770;2024-01-25T05:16:33;94377.03;;;3.29;100.00
59367;BME280;45163;47.690;11.770;2024-01-25T05:19:00;94390.13;;;3.27;100.00
59367;BME280;45163;47.690;11.770;2024-01-25T05:21:27;94387.72;;;3.21;100.00
59367;BME280;45163;47.690;11.770;2024-01-25T05:23:53;94387.31;;;3.19;100.00
59367;BME280;45163;47.690;11.770;2024-01-25T05:26:19;94398.03;;;3.16;100.00
59367;BME280;45163;47.690;11.770;2024-01-25T05:28:45;94403.06;;;3.17;100.00
59367;BME280;45163;47.690;11.770;2024-01-25T05:31:11;94396.78;;;3.10;100.00
59367;BME280;45163;47.690;11.770;2024-01-25T05:33:41;94418.13;;;3.18;100.00
59367;BME280;45163;47.690;11.770;2024-01-25T05:36:07;94406.13;;;3.16;100.00
59367;BME280;45163;47.690;11.770;2024-01-25T05:38:33;94427.34;;;3.17;100.00
59367;BME280;45163;47.690;11.770;2024-01-25T05:40:59;94415.78;;;3.17;100.00
59367;BME280;45163;47.690;11.770;2024-01-25T05:43:25;94431.69;;;3.22;100.00
59367;BME280;45163;47.690;11.770;2024-01-25T05:45:51;94433.56;;;3.21;100.00
59367;BME280;45163;47.690;11.770;2024-01-25T05:48:17;94425.47;;;3.21;100.00
59367;BME280;45163;47.690;11.770;2024-01-25T05:50:43;94420.38;;;3.16;100.00
59367;BME280;45163;47.690;11.770;2024-01-25T05:53:09;94421.50;;;3.38;100.00
59367;BME280;45163;47.690;11.770;2024-01-25T05:55:35;94429.75;;;3.45;100.00
59367;BME280;45163;47.690;11.770;2024-01-25T05:58:01;94436.66;;;3.43;100.00
59367;BME280;45163;47.690;11.770;2024-01-25T06:00:28;94430.59;;;3.27;100.00
59367;BME280;45163;47.690;11.770;2024-01-25T06:02:54;94437.06;;;3.45;100.00
59367;BME280;45163;47.690;11.770;2024-01-25T06:05:20;94426.50;;;3.36;100.00
59367;BME280;45163;47.690;11.770;2024-01-25T06:07:46;94420.66;;;3.57;100.00
59367;BME280;45163;47.690;11.770;2024-01-25T06:10:12;94425.34;;;3.87;100.00
59367;BME280;45163;47.690;11.770;2024-01-25T06:12:38;94423.09;;;4.19;100.00
59367;BME280;45163;47.690;11.770;2024-01-25T06:15:05;94425.38;;;4.17;100.00
59367;BME280;45163;47.690;11.770;2024-01-25T06:17:31;94424.22;;;4.18;100.00
59367;BME280;45163;47.690;11.770;2024-01-25T06:19:57;94426.19;;;4.21;100.00
59367;BME280;45163;47.690;11.770;2024-01-25T06:22:23;94425.56;;;4.31;100.00
59367;BME280;45163;47.690;11.770;2024-01-25T06:24:49;94431.28;;;4.26;100.00
59367;BME280;45163;47.690;11.770;2024-01-25T06:27:15;94437.56;;;4.34;100.00
59367;BME280;45163;47.690;11.770;2024-01-25T06:29:41;94438.06;;;4.43;100.00
59367;BME280;45163;47.690;11.770;2024-01-25T06:32:07;94436.16;;;4.43;100.00
59367;BME280;45163;47.690;11.770;2024-01-25T06:34:33;94443.22;;;4.52;100.00
59367;BME280;45163;47.690;11.770;2024-01-25T06:36:59;94438.88;;;4.47;100.00
59367;BME280;45163;47.690;11.770;2024-01-25T06:39:25;94441.00;;;4.61;100.00
59367;BME280;45163;47.690;11.770;2024-01-25T06:41:51;94447.53;;;4.60;100.00
59367;BME280;45163;47.690;11.770;2024-01-25T06:44:17;94453.19;;;4.47;100.00
59367;BME280;45163;47.690;11.770;2024-01-25T06:46:43;94454.03;;;4.55;100.00
59367;BME280;45163;47.690;11.770;2024-01-25T06:49:09;94453.66;;;4.53;100.00
59367;BME280;45163;47.690;11.770;2024-01-25T06:51:35;94454.03;;;4.52;100.00
59367;BME280;45163;47.690;11.770;2024-01-25T06:54:00;94448.97;;;4.50;100.00
59367;BME280;45163;47.690;11.770;2024-01-25T06:56:26;94448.63;;;4.52;100.00
59367;BME280;45163;47.690;11.770;2024-01-25T06:58:52;94461.72;;;4.49;100.00
59367;BME280;45163;47.690;11.770;2024-01-25T07:01:22;94465.25;;;4.54;100.00
59367;BME280;45163;47.690;11.770;2024-01-25T07:03:48;94474.84;;;4.47;100.00
59367;BME280;45163;47.690;11.770;2024-01-25T07:06:18;94479.09;;;4.48;100.00
59367;BME280;45163;47.690;11.770;2024-01-25T07:08:45;94481.41;;;4.50;100.00
59367;BME280;45163;47.690;11.770;2024-01-25T07:11:11;94481.88;;;4.56;100.00
59367;BME280;45163;47.690;11.770;2024-01-25T07:13:37;94479.34;;;4.40;100.00
59367;BME280;45163;47.690;11.770;2024-01-25T07:16:03;94479.53;;;4.54;100.00
59367;BME280;45163;47.690;11.770;2024-01-25T07:18:29;94488.75;;;4.49;100.00
59367;BME280;45163;47.690;11.770;2024-01-25T07:20:55;94493.44;;;4.53;100.00
59367;BME280;45163;47.690;11.770;2024-01-25T07:23:21;94498.34;;;4.43;100.00
59367;BME280;45163;47.690;11.770;2024-01-25T07:25:48;94494.84;;;4.16;100.00
59367;BME280;45163;47.690;11.770;2024-01-25T07:28:14;94495.75;;;3.97;100.00
59367;BME280;45163;47.690;11.770;2024-01-25T07:30:39;94514.84;;;3.62;100.00
59367;BME280;45163;47.690;11.770;2024-01-25T07:33:05;94507.00;;;3.54;100.00
59367;BME280;45163;47.690;11.770;2024-01-25T07:35:32;94513.06;;;3.47;100.00
59367;BME280;45163;47.690;11.770;2024-01-25T07:37:58;94516.81;;;3.42;100.00
59367;BME280;45163;47.690;11.770;2024-01-25T07:40:23;94500.50;;;3.35;100.00
59367;BME280;45163;47.690;11.770;2024-01-25T07:42:49;94518.09;;;3.48;100.00
59367;BME280;45163;47.690;11.770;2024-01-25T07:45:15;94523.41;;;3.45;100.00
59367;BME280;45163;47.690;11.770;2024-01-25T07:47:42;94524.25;;;3.49;100.00
59367;BME280;45163;47.690;11.770;2024-01-25T07:50:08;94538.22;;;3.55;100.00
59367;BME280;45163;47.690;11.770;2024-01-25T07:52:34;94538.38;;;3.62;100.00
59367;BME280;45163;47.690;11.770;2024-01-25T07:55:00;94533.81;;;3.66;100.00
59367;BME280;45163;47.690;11.770;2024-01-25T07:57:26;94538.81;;;3.64;100.00
59367;BME280;45163;47.690;11.770;2024-01-25T07:59:52;94544.19;;;3.64;100.00
59367;BME280;45163;47.690;11.770;2024-01-25T08:02:18;94546.78;;;3.57;100.00
59367;BME280;45163;47.690;11.770;2024-01-25T08:04:45;94541.38;;;3.57;100.00
59367;BME280;45163;47.690;11.770;2024-01-25T08:07:11;94540.53;;;3.53;100.00
59367;BME280;45163;47.690;11.770;2024-01-25T08:09:37;94554.81;;;3.53;100.00
59367;BME280;45163;47.690;11.770;2024-01-25T08:12:03;94557.25;;;3.62;100.00
59367;BME280;45163;47.690;11.770;2024-01-25T08:14:29;94564.47;;;3.77;100.00
59367;BME280;45163;47.690;11.770;2024-01-25T08:16:55;94567.53;;;3.75;100.00
59367;BME280;45163;47.690;11.770;2024-01-25T08:19:21;94572.59;;;3.77;100.00
59367;BME280;45163;47.690;11.770;2024-01-25T08:21:47;94561.41;;;3.79;100.00
59367;BME280;45163;47.690;11.770;2024-01-25T08:24:13;94557.38;;;3.92;100.00
59367;BME280;45163;47.690;11.770;2024-01-25T08:26:39;94563.03;;;3.83;100.00
59367;BME280;45163;47.690;11.770;2024-01-25T08:29:05;94557.50;;;3.76;100.00
59367;BME280;45163;47.690;11.770;2024-01-25T08:31:31;94566.69;;;3.71;100.00
59367;BME280;45163;47.690;11.770;2024-01-25T08:33:57;94565.50;;;3.69;100.00
59367;BME280;45163;47.690;11.770;2024-01-25T08:36:23;94558.25;;;3.73;100.00
59367;BME280;45163;47.690;11.770;2024-01-25T08:38:50;94554.47;;;3.78;100.00
59367;BME280;45163;47.690;11.770;2024-01-25T08:41:16;94565.31;;;3.81;100.00
59367;BME280;45163;47.690;11.770;2024-01-25T08:43:42;94562.63;;;3.81;100.00
59367;BME280;45163;47.690;11.770;2024-01-25T08:46:08;94567.72;;;3.86;100.00
59367;BME280;45163;47.690;11.770;2024-01-25T08:48:34;94570.16;;;3.95;100.00
59367;BME280;45163;47.690;11.770;2024-01-25T08:51:00;94582.00;;;4.10;100.00
59367;BME280;45163;47.690;11.770;2024-01-25T08:53:27;94576.81;;;4.24;100.00
59367;BME280;45163;47.690;11.770;2024-01-25T08:55:54;94583.44;;;4.27;100.00
59367;BME280;45163;47.690;11.770;2024-01-25T08:58:21;94572.69;;;4.34;100.00
59367;BME280;45163;47.690;11.770;2024-01-25T09:00:47;94577.84;;;4.42;100.00
59367;BME280;45163;47.690;11.770;2024-01-25T09:03:16;94579.84;;;4.45;100.00
59367;BME280;45163;47.690;11.770;2024-01-25T09:05:42;94578.69;;;4.46;100.00
59367;BME280;45163;47.690;11.770;2024-01-25T09:08:12;94574.63;;;4.60;100.00
59367;BME280;45163;47.690;11.770;2024-01-25T09:10:40;94580.28;;;4.51;100.00
59367;BME280;45163;47.690;11.770;2024-01-25T09:13:06;94588.56;;;4.35;100.00
59367;BME280;45163;47.690;11.770;2024-01-25T09:15:32;94594.63;;;4.52;100.00
59367;BME280;45163;47.690;11.770;2024-01-25T09:17:58;94596.63;;;4.58;100.00
59367;BME280;45163;47.690;11.770;2024-01-25T09:20:24;94596.31;;;4.63;100.00
59367;BME280;45163;47.690;11.770;2024-01-25T09:22:51;94605.56;;;4.62;100.00
59367;BME280;45163;47.690;11.770;2024-01-25T09:25:19;94612.38;;;4.79;100.00
59367;BME280;45163;47.690;11.770;2024-01-25T09:27:45;94607.19;;;4.93;100.00
59367;BME280;45163;47.690;11.770;2024-01-25T09:30:12;94620.50;;;5.09;100.00
59367;BME280;45163;47.690;11.770;2024-01-25T09:32:38;94620.44;;;5.02;100.00
59367;BME280;45163;47.690;11.770;2024-01-25T09:35:04;94616.97;;;5.05;100.00
59367;BME280;45163;47.690;11.770;2024-01-25T09:37:31;94621.31;;;5.13;100.00
59367;BME280;45163;47.690;11.770;2024-01-25T09:39:57;94608.28;;;5.19;100.00
59367;BME280;45163;47.690;11.770;2024-01-25T09:42:24;94599.59;;;5.36;100.00
59367;BME280;45163;47.690;11.770;2024-01-25T09:44:52;94597.97;;;5.32;100.00
59367;BME280;45163;47.690;11.770;2024-01-25T09:47:20;94599.59;;;5.36;100.00
59367;BME280;45163;47.690;11.770;2024-01-25T09:49:47;94610.59;;;5.54;100.00
59367;BME280;45163;47.690;11.770;2024-01-25T09:52:13;94604.94;;;5.66;100.00
59367;BME280;45163;47.690;11.770;2024-01-25T09:54:39;94586.91;;;5.85;100.00
59367;BME280;45163;47.690;11.770;2024-01-25T09:57:16;94580.53;;;5.63;100.00
59367;BME280;45163;47.690;11.770;2024-01-25T09:59:45;94582.22;;;5.41;100.00
59367;BME280;45163;47.690;11.770;2024-01-25T10:02:11;94575.06;;;5.59;100.00
59367;BME280;45163;47.690;11.770;2024-01-25T10:04:37;94573.41;;;6.88;100.00
59367;BME280;45163;47.690;11.770;2024-01-25T10:07:04;94581.34;;;11.47;100.00
59367;BME280;45163;47.690;11.770;2024-01-25T10:09:41;94545.03;;;12.79;100.00
59367;BME280;45163;47.690;11.770;2024-01-25T10:12:07;94534.75;;;14.71;100.00
59367;BME280;45163;47.690;11.770;2024-01-25T10:14:33;94523.84;;;15.84;100.00
59367;BME280;45163;47.690;11.770;2024-01-25T10:17:00;94520.84;;;14.62;100.00
59367;BME280;45163;47.690;11.770;2024-01-25T10:19:26;94522.78;;;11.76;100.00
59367;BME280;45163;47.690;11.770;2024-01-25T10:21:53;94516.78;;;15.83;100.00
59367;BME280;45163;47.690;11.770;2024-01-25T10:24:19;94511.06;;;17.01;100.00
59367;BME280;45163;47.690;11.770;2024-01-25T10:26:45;94517.25;;;15.39;95.61
59367;BME280;45163;47.690;11.770;2024-01-25T10:29:11;94507.44;;;14.31;100.00
59367;BME280;45163;47.690;11.770;2024-01-25T10:31:38;94506.59;;;14.34;100.00
59367;BME280;45163;47.690;11.770;2024-01-25T10:34:13;94507.50;;;13.19;100.00
59367;BME280;45163;47.690;11.770;2024-01-25T10:36:40;94512.47;;;12.14;100.00
59367;BME280;45163;47.690;11.770;2024-01-25T10:39:08;94501.47;;;12.41;100.00
59367;BME280;45163;47.690;11.770;2024-01-25T10:41:34;94501.28;;;13.38;100.00
59367;BME280;45163;47.690;11.770;2024-01-25T10:44:00;94492.38;;;16.23;100.00
59367;BME280;45163;47.690;11.770;2024-01-25T10:46:29;94490.25;;;15.22;100.00
59367;BME280;45163;47.690;11.770;2024-01-25T10:48:58;94492.97;;;13.22;100.00
59367;BME280;45163;47.690;11.770;2024-01-25T10:51:26;94490.41;;;11.43;100.00
59367;BME280;45163;47.690;11.770;2024-01-25T10:53:53;94482.34;;;9.71;100.00
59367;BME280;45163;47.690;11.770;2024-01-25T10:56:19;94488.75;;;9.39;100.00
59367;BME280;45163;47.690;11.770;2024-01-25T10:58:46;94486.47;;;9.31;100.00
59367;BME280;45163;47.690;11.770;2024-01-25T11:01:13;94477.19;;;11.96;100.00
59367;BME280;45163;47.690;11.770;2024-01-25T11:03:39;94476.78;;;12.44;100.00
59367;BME280;45163;47.690;11.770;2024-01-25T11:06:10;94471.38;;;14.29;100.00
59367;BME280;45163;47.690;11.770;2024-01-25T11:08:39;94464.53;;;14.21;100.00
59367;BME280;45163;47.690;11.770;2024-01-25T11:11:21;94460.81;;;15.48;100.00
59367;BME280;45163;47.690;11.770;2024-01-25T11:13:49;94457.72;;;17.92;96.78
59367;BME280;45163;47.690;11.770;2024-01-25T11:16:17;94462.44;;;18.90;90.50
59367;BME280;45163;47.690;11.770;2024-01-25T11:18:56;94458.44;;;19.10;81.35
59367;BME280;45163;47.690;11.770;2024-01-25T11:21:41;94454.75;;;21.06;81.63
59367;BME280;45163;47.690;11.770;2024-01-25T11:24:20;94457.78;;;19.42;79.96
59367;BME280;45163;47.690;11.770;2024-01-25T11:26:46;94457.78;;;19.42;79.96
59367;BME280;45163;47.690;11.770;2024-01-25T11:29:16;94446.84;;;12.10;100.00
59367;BME280;45163;47.690;11.770;2024-01-25T11:31:47;94455.03;;;10.23;100.00
59367;BME280;45163;47.690;11.770;2024-01-25T11:34:14;94456.56;;;9.79;100.00
59367;BME280;45163;47.690;11.770;2024-01-25T11:36:42;94461.47;;;9.46;100.00
59367;BME280;45163;47.690;11.770;2024-01-25T11:39:12;94453.31;;;8.59;100.00
59367;BME280;45163;47.690;11.770;2024-01-25T11:41:38;94464.97;;;8.59;100.00
59367;BME280;45163;47.690;11.770;2024-01-25T11:44:04;94458.38;;;8.50;100.00
59367;BME280;45163;47.690;11.770;2024-01-25T11:46:31;94463.25;;;9.01;100.00
59367;BME280;45163;47.690;11.770;2024-01-25T11:49:00;94463.53;;;9.25;100.00
59367;BME280;45163;47.690;11.770;2024-01-25T11:51:26;94455.59;;;9.48;100.00
59367;BME280;45163;47.690;11.770;2024-01-25T11:53:52;94458.59;;;9.68;100.00
59367;BME280;45163;47.690;11.770;2024-01-25T11:56:26;94451.16;;;9.72;100.00
59367;BME280;45163;47.690;11.770;2024-01-25T11:58:54;94450.13;;;9.52;100.00
59367;BME280;45163;47.690;11.770;2024-01-25T12:01:23;94450.19;;;8.57;100.00
59367;BME280;45163;47.690;11.770;2024-01-25T12:03:50;94439.22;;;9.52;100.00
59367;BME280;45163;47.690;11.770;2024-01-25T12:06:17;94447.91;;;8.44;100.00
59367;BME280;45163;47.690;11.770;2024-01-25T12:08:49;94450.25;;;10.38;100.00
59367;BME280;45163;47.690;11.770;2024-01-25T12:11:17;94437.56;;;10.17;100.00
59367;BME280;45163;47.690;11.770;2024-01-25T12:13:45;94429.69;;;9.78;100.00
59367;BME280;45163;47.690;11.770;2024-01-25T12:16:11;94432.69;;;9.42;100.00
59367;BME280;45163;47.690;11.770;2024-01-25T12:18:40;94429.28;;;10.65;100.00
59367;BME280;45163;47.690;11.770;2024-01-25T12:21:06;94418.56;;;13.40;100.00
59367;BME280;45163;47.690;11.770;2024-01-25T12:23:39;94412.00;;;17.38;97.40
59367;BME280;45163;47.690;11.770;2024-01-25T12:26:07;94410.22;;;18.15;78.22
59367;BME280;45163;47.690;11.770;2024-01-25T12:28:34;94406.53;;;16.12;85.90
59367;BME280;45163;47.690;11.770;2024-01-25T12:31:02;94400.81;;;13.97;88.31
59367;BME280;45163;47.690;11.770;2024-01-25T12:33:29;94411.63;;;12.56;97.57
59367;BME280;45163;47.690;11.770;2024-01-25T12:35:55;94403.34;;;12.99;98.26
59367;BME280;45163;47.690;11.770;2024-01-25T12:38:22;94406.16;;;11.62;100.00
59367;BME280;45163;47.690;11.770;2024-01-25T12:40:50;94404.31;;;10.67;100.00
59367;BME280;45163;47.690;11.770;2024-01-25T12:43:16;94395.66;;;11.33;100.00
59367;BME280;45163;47.690;11.770;2024-01-25T12:45:42;94394.06;;;13.13;97.72